Time;durP1;ratioP1;P1;durP2;ratioP2;P2;SDS_P1;SDS_P2;PMS_P1;PMS_P2;Temp;Humidity;BMP_temperature;BMP_pressure;BME280_temperature;BME280_humidity;BME280_pressure;Samples;Min_cycle;Max_cycle;Signal;HPM_P1;HPM_P2
2023/03/21 00:00:43;;;;;;;;;12.33;10.00;;;;;15.15;100.00;101418.53;5055308;28;45324;-80
2023/03/21 00:03:08;;;;;;;;;12.67;8.67;;;;;15.16;100.00;101421.16;5055635;28;45415;-80
2023/03/21 00:05:34;;;;;;;;;8.00;7.33;;;;;15.15;100.00;101410.53;5053736;28;45473;-80
2023/03/21 00:08:00;;;;;;;;;10.67;9.67;;;;;15.18;100.00;101416.75;5037502;28;46344;-80
2023/03/21 00:10:25;;;;;;;;;13.00;8.00;;;;;15.16;100.00;101407.88;5046875;28;45902;-81
2023/03/21 00:12:57;;;;;;;;;10.00;8.67;;;;;15.19;100.00;101405.22;5054711;28;46993;-81
2023/03/21 00:15:26;;;;;;;;;8.00;7.00;;;;;15.20;100.00;101409.66;5059461;28;45292;-80
2023/03/21 00:18:10;;;;;;;;;11.33;9.33;;;;;15.19;100.00;101399.03;5058365;28;47658;-82
2023/03/21 00:20:36;;;;;;;;;8.00;8.00;;;;;15.20;100.00;101400.78;5041762;28;45431;-80
2023/03/21 00:23:02;;;;;;;;;11.00;9.00;;;;;15.22;100.00;101404.31;5058293;28;45190;-81
2023/03/21 00:25:27;;;;;;;;;8.67;7.33;;;;;15.21;100.00;101402.56;5058913;28;45575;-80
2023/03/21 00:27:53;;;;;;;;;8.33;8.33;;;;;15.20;100.00;101398.13;5054882;28;47357;-80
2023/03/21 00:30:18;;;;;;;;;8.00;7.00;;;;;15.22;100.00;101398.13;5142924;22;56699;-80
2023/03/21 00:32:45;;;;;;;;;7.00;6.33;;;;;15.21;100.00;101399.91;5036656;28;45806;-81
2023/03/21 00:35:11;;;;;;;;;8.33;7.00;;;;;15.20;100.00;101390.16;5038080;28;45267;-81
2023/03/21 00:37:36;;;;;;;;;8.00;7.00;;;;;15.20;100.00;101387.50;5030923;28;46106;-80
2023/03/21 00:40:04;;;;;;;;;6.33;6.33;;;;;15.21;100.00;101394.56;5033267;28;45336;-81
2023/03/21 00:42:29;;;;;;;;;6.00;6.00;;;;;15.18;100.00;101392.81;5033648;28;45355;-80
2023/03/21 00:44:55;;;;;;;;;8.33;6.33;;;;;15.14;100.00;101385.72;5036894;28;65249;-80
2023/03/21 00:47:20;;;;;;;;;8.00;6.67;;;;;15.12;100.00;101383.91;5013746;28;46598;-80
2023/03/21 00:49:45;;;;;;;;;11.00;6.33;;;;;15.11;100.00;101390.13;5037250;28;45497;-80
2023/03/21 00:52:11;;;;;;;;;8.00;5.00;;;;;15.08;100.00;101383.06;5013381;28;45388;-81
2023/03/21 00:54:36;;;;;;;;;10.67;6.00;;;;;15.07;100.00;101386.56;5034757;28;45575;-82
2023/03/21 00:57:02;;;;;;;;;6.00;6.00;;;;;15.05;100.00;101384.81;5038348;28;46651;-80
2023/03/21 00:59:28;;;;;;;;;8.67;6.67;;;;;15.04;100.00;101389.25;5009190;28;46348;-81
2023/03/21 01:01:54;;;;;;;;;6.67;6.33;;;;;15.03;100.00;101383.94;5038386;28;45586;-80
2023/03/21 01:04:25;;;;;;;;;9.33;5.33;;;;;15.00;100.00;101375.94;5038087;28;45384;-81
2023/03/21 01:06:51;;;;;;;;;7.00;5.67;;;;;15.01;100.00;101370.59;5035528;28;45438;-80
2023/03/21 01:09:19;;;;;;;;;8.00;5.33;;;;;14.98;100.00;101367.97;5037734;28;45608;-81
2023/03/21 01:11:45;;;;;;;;;6.00;5.00;;;;;14.97;100.00;101368.84;5028707;28;45300;-81
2023/03/21 01:14:11;;;;;;;;;6.33;5.00;;;;;14.96;100.00;101366.16;5037571;28;45202;-80
2023/03/21 01:16:37;;;;;;;;;8.00;7.00;;;;;14.96;100.00;101374.16;5007377;28;47796;-80
2023/03/21 01:19:04;;;;;;;;;5.67;5.67;;;;;14.94;100.00;101367.06;5028877;28;50887;-80
2023/03/21 01:21:30;;;;;;;;;6.33;5.00;;;;;14.94;100.00;101358.19;5024698;28;45308;-81
2023/03/21 01:23:56;;;;;;;;;5.00;5.00;;;;;14.93;100.00;101364.41;5037414;28;45578;-81
2023/03/21 01:26:21;;;;;;;;;5.00;5.00;;;;;14.92;100.00;101357.31;5037344;28;46742;-82
2023/03/21 01:28:46;;;;;;;;;6.00;5.00;;;;;14.93;100.00;101359.09;5036696;28;67284;-81
2023/03/21 01:31:14;;;;;;;;;8.00;5.00;;;;;14.93;100.00;101356.44;5036581;28;50986;-80
2023/03/21 01:33:40;;;;;;;;;4.00;4.00;;;;;14.91;100.00;101363.50;5018787;28;45555;-80
2023/03/21 01:36:07;;;;;;;;;5.33;5.33;;;;;14.90;100.00;101356.41;5035247;28;47481;-80
2023/03/21 01:38:32;;;;;;;;;4.33;4.33;;;;;14.88;100.00;101359.06;5033695;28;45284;-82
2023/03/21 01:41:01;;;;;;;;;5.00;5.00;;;;;14.86;100.00;101365.25;5033469;28;45430;-82
2023/03/21 01:43:30;;;;;;;;;4.00;4.00;;;;;14.82;100.00;101356.41;5024104;28;45537;-80
2023/03/21 01:46:19;;;;;;;;;4.67;4.67;;;;;14.81;100.00;101351.97;5028229;28;46568;-82
2023/03/21 01:48:50;;;;;;;;;4.33;4.33;;;;;14.77;100.00;101352.84;5029588;28;45435;-80
2023/03/21 01:51:16;;;;;;;;;4.67;4.67;;;;;14.74;100.00;101355.50;5005738;28;45370;-80
2023/03/21 01:53:42;;;;;;;;;7.00;4.67;;;;;14.68;100.00;101336.88;5011144;28;45717;-81
2023/03/21 01:56:16;;;;;;;;;4.00;4.00;;;;;14.68;100.00;101345.72;5024503;28;55179;-81
2023/03/21 01:58:43;;;;;;;;;5.00;5.00;;;;;14.66;100.00;101342.19;4995857;28;45440;-80
2023/03/21 02:01:08;;;;;;;;;6.00;4.67;;;;;14.66;100.00;101338.66;5036692;28;60489;-80
2023/03/21 02:03:49;;;;;;;;;7.00;4.00;;;;;14.67;100.00;101335.09;5012408;28;45388;-81
2023/03/21 02:06:19;;;;;;;;;10.67;4.00;;;;;14.68;100.00;101332.44;5036150;28;47652;-80
2023/03/21 02:08:45;;;;;;;;;3.67;3.67;;;;;14.68;100.00;101329.78;5011594;28;45396;-80
2023/03/21 02:11:11;;;;;;;;;6.33;4.00;;;;;14.68;100.00;101326.25;5025642;28;45305;-80
2023/03/21 02:13:36;;;;;;;;;4.67;4.33;;;;;14.67;100.00;101327.13;5036287;28;59176;-80
2023/03/21 02:16:10;;;;;;;;;6.33;4.33;;;;;14.64;100.00;101316.47;5018704;28;47610;-80
2023/03/21 02:18:44;;;;;;;;;5.00;3.00;;;;;14.62;100.00;101313.84;5036193;28;45372;-81
2023/03/21 02:21:13;;;;;;;;;4.33;4.33;;;;;14.62;100.00;101312.94;5035281;28;45447;-80
2023/03/21 02:24:12;;;;;;;;;3.33;3.33;;;;;14.60;100.00;101309.41;5036944;28;45459;-82
2023/03/21 02:27:06;;;;;;;;;3.33;3.33;;;;;14.56;100.00;101316.47;5036331;28;46453;-80
2023/03/21 02:30:28;;;;;;;;;5.00;3.33;;;;;14.53;100.00;101312.91;5032244;28;45308;-83
2023/03/21 02:33:15;;;;;;;;;5.00;3.00;;;;;14.50;100.00;101308.50;4916682;28;45525;-81
2023/03/21 02:36:26;;;;;;;;;7.00;4.00;;;;;14.51;100.00;101302.28;4987489;28;45468;-81
2023/03/21 02:39:12;;;;;;;;;4.33;4.00;;;;;14.49;100.00;101298.75;4986050;28;46741;-81
2023/03/21 02:41:47;;;;;;;;;5.67;3.00;;;;;14.47;100.00;101297.84;4989066;28;45277;-80
2023/03/21 02:44:24;;;;;;;;;4.67;3.00;;;;;14.45;100.00;101296.06;4995698;28;45548;-81
2023/03/21 02:47:00;;;;;;;;;4.67;4.00;;;;;14.43;100.00;101285.41;4990387;28;45462;-82
2023/03/21 02:49:50;;;;;;;;;4.00;2.33;;;;;14.42;100.00;101289.81;4992896;28;46945;-81
2023/03/21 02:52:20;;;;;;;;;3.33;3.00;;;;;14.42;100.00;101294.25;5005016;28;45500;-80
2023/03/21 02:54:47;;;;;;;;;6.67;4.33;;;;;14.41;100.00;101292.50;4994731;28;45277;-81
2023/03/21 02:57:13;;;;;;;;;5.00;2.00;;;;;14.40;100.00;101288.94;4988143;28;45526;-80
2023/03/21 02:59:38;;;;;;;;;3.67;3.00;;;;;14.40;100.00;101280.97;4990369;28;46477;-80
2023/03/21 03:02:04;;;;;;;;;7.00;3.00;;;;;14.40;100.00;101288.06;4987540;28;45337;-80
2023/03/21 03:04:29;;;;;;;;;3.67;3.67;;;;;14.40;100.00;101280.09;4988000;28;63395;-80
2023/03/21 03:06:57;;;;;;;;;2.33;2.33;;;;;14.41;100.00;101276.53;4993137;28;45567;-81
2023/03/21 03:09:29;;;;;;;;;6.00;4.00;;;;;14.40;100.00;101272.13;4986233;28;46778;-82
2023/03/21 03:12:06;;;;;;;;;3.00;2.00;;;;;14.39;100.00;101267.69;4996163;28;45486;-82
2023/03/21 03:14:50;;;;;;;;;3.00;2.00;;;;;14.37;100.00;101272.09;4995496;28;45556;-81
2023/03/21 03:17:18;;;;;;;;;3.00;2.00;;;;;14.37;100.00;101270.34;4983129;28;45512;-80
2023/03/21 03:19:51;;;;;;;;;2.00;2.00;;;;;14.36;99.67;101278.31;4990427;28;47564;-80
2023/03/21 03:22:34;;;;;;;;;4.67;3.00;;;;;14.31;99.44;101275.63;4982260;28;45440;-82
2023/03/21 03:25:06;;;;;;;;;5.00;3.00;;;;;14.32;99.27;101276.50;4979348;28;45384;-81
2023/03/21 03:27:35;;;;;;;;;3.33;2.00;;;;;14.31;99.19;101267.66;4995186;28;45555;-80
2023/03/21 03:30:01;;;;;;;;;4.00;3.00;;;;;14.31;99.20;101259.69;4991586;28;46673;-80
2023/03/21 03:32:45;;;;;;;;;2.00;2.00;;;;;14.35;98.59;101265.91;5001437;28;45264;-80
2023/03/21 03:35:16;;;;;;;;;4.33;3.00;;;;;14.34;98.96;101262.38;5002068;28;45543;-81
2023/03/21 03:37:44;;;;;;;;;2.67;2.33;;;;;14.33;98.40;101259.72;5002199;28;45436;-80
2023/03/21 03:40:15;;;;;;;;;4.00;3.00;;;;;14.34;98.15;101256.19;5016852;28;45383;-80
2023/03/21 03:42:47;;;;;;;;;2.33;2.00;;;;;14.35;97.38;101263.25;5017386;28;45284;-80
2023/03/21 03:45:12;;;;;;;;;4.00;3.00;;;;;14.33;97.93;101259.72;5016516;28;45328;-81
2023/03/21 03:47:50;;;;;;;;;2.33;2.33;;;;;14.33;97.96;101259.72;5034663;28;60913;-80
2023/03/21 03:50:21;;;;;;;;;3.00;2.00;;;;;14.32;97.37;101263.22;5009274;28;46580;-81
2023/03/21 03:53:27;;;;;;;;;2.00;2.00;;;;;14.33;97.56;101267.69;5020304;28;45602;-80
2023/03/21 03:55:54;;;;;;;;;4.00;2.00;;;;;14.31;97.13;101254.38;4991138;28;45576;-80
2023/03/21 03:58:20;;;;;;;;;3.00;3.00;;;;;14.31;96.76;101259.69;5012191;28;45586;-80
2023/03/21 04:00:46;;;;;;;;;2.67;2.00;;;;;14.27;96.18;101257.03;5013440;28;46642;-81
2023/03/21 04:03:12;;;;;;;;;5.00;3.00;;;;;14.24;96.07;101260.56;5030294;28;45705;-80
2023/03/21 04:05:37;;;;;;;;;2.33;2.33;;;;;14.24;96.37;101267.66;5034512;28;45297;-81
2023/03/21 04:08:03;;;;;;;;;2.67;2.67;;;;;14.24;96.59;101265.00;5034356;28;45303;-80
2023/03/21 04:10:28;;;;;;;;;1.67;1.33;;;;;14.24;96.24;101273.84;5008592;28;47495;-80
2023/03/21 04:12:53;;;;;;;;;2.67;2.67;;;;;14.25;96.74;101275.63;5027045;28;67093;-81
2023/03/21 04:15:19;;;;;;;;;4.00;3.00;;;;;14.26;96.75;101281.81;5032542;28;45399;-80
2023/03/21 04:17:45;;;;;;;;;2.00;2.00;;;;;14.26;96.80;101274.72;5029121;28;45339;-82
2023/03/21 04:20:10;;;;;;;;;3.00;3.00;;;;;14.27;96.66;101279.16;5007655;28;47627;-80
2023/03/21 04:22:36;;;;;;;;;4.67;2.33;;;;;14.30;96.56;101278.28;5027757;28;60767;-82
2023/03/21 04:25:04;;;;;;;;;4.00;2.00;;;;;14.30;97.28;101268.56;5027503;28;45241;-82
2023/03/21 04:27:30;;;;;;;;;2.00;2.00;;;;;14.30;98.08;101267.66;5036339;28;45316;-81
2023/03/21 04:29:55;;;;;;;;;3.33;2.67;;;;;14.30;98.80;101270.31;5028902;28;47025;-81
2023/03/21 04:32:23;;;;;;;;;3.00;2.00;;;;;14.29;98.84;101268.56;5025088;28;46637;-80
2023/03/21 04:34:52;;;;;;;;;3.00;2.00;;;;;14.30;98.68;101259.69;5025880;28;45376;-82
2023/03/21 04:37:19;;;;;;;;;5.33;3.00;;;;;14.27;97.89;101257.03;5017602;28;45592;-81
2023/03/21 04:39:46;;;;;;;;;3.00;2.67;;;;;14.31;98.52;101265.00;5038876;28;46317;-81
2023/03/21 04:42:13;;;;;;;;;2.00;2.00;;;;;14.28;98.14;101254.38;5038661;28;45341;-80
2023/03/21 04:44:41;;;;;;;;;2.00;2.00;;;;;14.30;98.56;101257.03;5034960;28;47480;-80
2023/03/21 04:47:07;;;;;;;;;5.00;3.33;;;;;14.27;97.81;101249.06;5031133;28;45300;-80
2023/03/21 04:49:32;;;;;;;;;2.00;2.00;;;;;14.30;97.98;101257.03;5030286;28;46138;-82
2023/03/21 04:51:58;;;;;;;;;2.00;2.00;;;;;14.30;99.56;101254.38;5023891;28;62705;-81
2023/03/21 04:54:23;;;;;;;;;5.00;3.00;;;;;14.28;100.00;101264.13;5035104;28;45296;-81
2023/03/21 04:56:50;;;;;;;;;2.00;2.00;;;;;14.27;100.00;101263.22;5022653;28;45399;-80
2023/03/21 04:59:16;;;;;;;;;2.67;2.67;;;;;14.25;100.00;101259.69;5025718;28;46434;-80
2023/03/21 05:01:42;;;;;;;;;3.00;3.00;;;;;14.25;100.00;101250.84;5028356;28;45496;-81
2023/03/21 05:04:08;;;;;;;;;3.00;3.00;;;;;14.24;100.00;101265.00;5028193;28;45248;-81
2023/03/21 05:06:34;;;;;;;;;4.33;4.33;;;;;14.25;100.00;101264.09;5038057;28;45587;-80
2023/03/21 05:09:04;;;;;;;;;2.00;2.00;;;;;14.22;100.00;101265.00;5038090;28;46976;-81
2023/03/21 05:11:30;;;;;;;;;2.33;2.33;;;;;14.19;100.00;101254.34;5034684;28;45848;-80
2023/03/21 05:13:59;;;;;;;;;2.00;2.00;;;;;14.19;100.00;101264.09;5029056;28;45505;-81
2023/03/21 05:16:25;;;;;;;;;2.00;2.00;;;;;14.16;100.00;101251.69;5028596;28;45363;-80
2023/03/21 05:18:54;;;;;;;;;2.67;2.67;;;;;14.13;100.00;101247.25;5023958;28;46734;-80
2023/03/21 05:21:20;;;;;;;;;4.00;2.33;;;;;14.11;100.00;101248.13;5011757;28;46045;-80
2023/03/21 05:23:52;;;;;;;;;3.00;3.00;;;;;14.10;100.00;101247.25;5032318;28;45368;-82
2023/03/21 05:26:19;;;;;;;;;3.00;3.00;;;;;14.11;100.00;101240.16;5005747;28;45496;-80
2023/03/21 05:28:46;;;;;;;;;4.00;1.67;;;;;14.09;100.00;101240.16;5027781;28;48447;-80
2023/03/21 05:31:15;;;;;;;;;3.00;3.00;;;;;14.09;100.00;101247.25;4988003;28;45537;-80
2023/03/21 05:33:42;;;;;;;;;8.33;3.00;;;;;14.07;100.00;101247.25;5025722;28;45238;-81
2023/03/21 05:36:08;;;;;;;;;4.00;2.00;;;;;14.07;100.00;101246.38;5030330;28;45201;-80
2023/03/21 05:38:34;;;;;;;;;7.33;3.67;;;;;14.05;100.00;101243.69;5013640;28;46398;-81
2023/03/21 05:40:59;;;;;;;;;3.00;3.00;;;;;14.03;100.00;101247.22;5037276;28;45348;-81
2023/03/21 05:43:25;;;;;;;;;3.67;3.67;;;;;14.00;100.00;101250.75;5034044;28;45253;-82
2023/03/21 05:45:50;;;;;;;;;3.33;2.67;;;;;14.00;100.00;101252.50;5032711;28;45661;-80
2023/03/21 05:48:16;;;;;;;;;3.33;3.00;;;;;13.99;100.00;101248.97;5025925;28;47160;-82
2023/03/21 05:50:41;;;;;;;;;2.00;2.00;;;;;13.98;100.00;101246.31;5025055;28;62132;-80
2023/03/21 05:53:07;;;;;;;;;3.00;3.00;;;;;13.96;100.00;101240.13;5031201;28;45315;-81
2023/03/21 05:55:32;;;;;;;;;4.00;4.00;;;;;13.93;100.00;101235.69;5030610;28;45416;-81
2023/03/21 05:57:57;;;;;;;;;3.67;3.33;;;;;13.91;100.00;101241.88;5007951;28;72696;-80
2023/03/21 06:00:23;;;;;;;;;3.00;3.00;;;;;13.88;100.00;101242.75;5028164;28;66386;-81
2023/03/21 06:02:48;;;;;;;;;5.00;3.00;;;;;13.84;100.00;101240.94;5036064;28;45475;-82
2023/03/21 06:05:14;;;;;;;;;4.00;2.33;;;;;13.82;100.00;101237.41;5019605;28;45600;-80
2023/03/21 06:07:39;;;;;;;;;5.67;3.00;;;;;13.78;100.00;101222.34;5002556;28;46317;-81
2023/03/21 06:10:05;;;;;;;;;3.33;3.00;;;;;13.73;100.00;101226.75;5037082;28;45292;-81
2023/03/21 06:12:31;;;;;;;;;3.67;3.33;;;;;13.74;100.00;101241.78;5018616;28;45400;-81
2023/03/21 06:14:56;;;;;;;;;4.67;4.67;;;;;13.73;100.00;101246.22;5032648;28;45494;-81
2023/03/21 06:17:21;;;;;;;;;4.00;4.00;;;;;13.72;100.00;101259.47;5036324;28;47960;-80
2023/03/21 06:19:47;;;;;;;;;2.67;2.67;;;;;13.71;100.00;101257.72;5008783;28;47437;-83
2023/03/21 06:22:12;;;;;;;;;4.67;4.67;;;;;13.70;100.00;101254.16;5030904;28;61206;-85
2023/03/21 06:24:37;;;;;;;;;2.33;2.33;;;;;13.67;100.00;101258.56;4997121;28;57477;-85
2023/03/21 06:27:04;;;;;;;;;4.00;3.00;;;;;13.63;100.00;101252.34;5035226;28;64413;-85
2023/03/21 06:29:30;;;;;;;;;4.00;4.00;;;;;13.61;100.00;101259.41;5035500;28;45379;-84
2023/03/21 06:31:55;;;;;;;;;5.00;4.00;;;;;13.55;100.00;101257.63;5033700;28;45416;-83
2023/03/21 06:34:20;;;;;;;;;4.00;4.00;;;;;13.47;100.00;101259.31;5000066;28;45453;-82
2023/03/21 06:36:46;;;;;;;;;7.67;4.00;;;;;13.43;100.00;101260.22;5011895;28;68885;-80
2023/03/21 06:39:12;;;;;;;;;3.67;3.00;;;;;13.39;100.00;101254.88;5008219;28;59751;-84
2023/03/21 06:41:37;;;;;;;;;5.67;3.67;;;;;13.32;100.00;101246.88;5036253;28;45364;-82
2023/03/21 06:44:03;;;;;;;;;3.00;3.00;;;;;13.32;100.00;101246.00;5017394;28;45607;-88
2023/03/21 06:46:28;;;;;;;;;4.00;4.00;;;;;13.28;100.00;101242.44;5013518;28;68889;-87
2023/03/21 06:48:54;;;;;;;;;5.00;3.00;;;;;13.27;100.00;101239.78;5009175;28;54728;-83
2023/03/21 06:51:19;;;;;;;;;4.00;4.00;;;;;13.24;100.00;101234.44;4996187;28;45330;-84
2023/03/21 06:53:45;;;;;;;;;5.00;3.67;;;;;13.27;100.00;101235.34;5015953;28;45620;-85
2023/03/21 06:56:12;;;;;;;;;5.33;4.00;;;;;13.28;100.00;101229.16;5015680;28;45598;-84
2023/03/21 06:58:37;;;;;;;;;5.00;5.00;;;;;13.28;100.00;101225.63;5015532;28;45243;-80
2023/03/21 07:01:03;;;;;;;;;3.00;3.00;;;;;13.31;100.00;101220.34;5033721;28;45605;-80
2023/03/21 07:03:30;;;;;;;;;4.00;4.00;;;;;13.32;100.00;101235.41;5035476;28;46045;-77
2023/03/21 07:05:56;;;;;;;;;6.67;3.67;;;;;13.34;100.00;101228.31;5033444;28;46770;-77
2023/03/21 07:08:21;;;;;;;;;4.67;4.33;;;;;13.36;100.00;101226.56;5034587;28;45288;-78
2023/03/21 07:10:46;;;;;;;;;4.00;3.00;;;;;13.41;100.00;101213.31;5030913;28;59086;-77
2023/03/21 07:13:12;;;;;;;;;4.67;4.67;;;;;13.45;100.00;101213.34;5013873;28;45816;-77
2023/03/21 07:15:37;;;;;;;;;6.33;4.33;;;;;13.52;100.00;101214.25;5035566;28;46488;-78
2023/03/21 07:18:04;;;;;;;;;6.33;6.33;;;;;13.58;100.00;101217.84;5026302;28;63421;-77
2023/03/21 07:20:30;;;;;;;;;7.67;5.00;;;;;13.67;100.00;101221.41;5033333;28;45451;-77
2023/03/21 07:22:56;;;;;;;;;5.67;5.00;;;;;13.69;100.00;101212.59;5033988;28;45602;-78
2023/03/21 07:25:21;;;;;;;;;7.67;6.67;;;;;13.75;100.00;101227.66;5016167;28;45847;-77
2023/03/21 07:27:46;;;;;;;;;6.00;5.00;;;;;13.81;100.00;101235.66;5016917;28;68007;-77
2023/03/21 07:30:12;;;;;;;;;4.00;4.00;;;;;13.88;100.00;101232.13;5034723;28;45637;-78
2023/03/21 07:32:38;;;;;;;;;5.00;5.00;;;;;13.97;100.00;101215.34;5013111;28;45402;-77
2023/03/21 07:35:09;;;;;;;;;4.67;4.00;;;;;14.03;100.00;101221.56;5014781;28;45765;-78
2023/03/21 07:37:34;;;;;;;;;5.33;5.00;;;;;14.10;100.00;101203.88;5005781;28;45274;-78
2023/03/21 07:40:00;;;;;;;;;4.00;4.00;;;;;14.14;100.00;101185.28;5030933;28;45428;-78
2023/03/21 07:42:25;;;;;;;;;6.00;5.00;;;;;14.16;100.00;101180.84;5029206;28;62769;-79
2023/03/21 07:44:51;;;;;;;;;9.33;5.33;;;;;14.25;100.00;101200.38;5014263;28;45953;-79
2023/03/21 07:47:17;;;;;;;;;6.00;6.00;;;;;14.28;100.00;101192.41;5013581;28;45547;-79
2023/03/21 07:49:42;;;;;;;;;10.00;5.67;;;;;14.31;100.00;101157.88;5030723;28;45395;-79
2023/03/21 07:52:07;;;;;;;;;12.33;5.00;;;;;14.30;100.00;101142.81;5024983;28;59800;-83
2023/03/21 07:54:33;;;;;;;;;7.33;6.00;;;;;14.29;100.00;101147.25;5030837;28;45631;-80
2023/03/21 07:56:59;;;;;;;;;5.33;5.00;;;;;14.30;100.00;101169.38;5030985;28;45751;-79
2023/03/21 07:59:25;;;;;;;;;7.67;4.33;;;;;14.30;100.00;101180.00;4993610;28;45664;-80
2023/03/21 08:01:50;;;;;;;;;6.00;6.00;;;;;14.32;100.00;101186.19;5026272;28;46310;-81
2023/03/21 08:04:16;;;;;;;;;8.33;6.00;;;;;14.31;100.00;101185.31;5012847;28;47677;-81
2023/03/21 08:06:41;;;;;;;;;6.00;5.00;;;;;14.35;100.00;101205.69;5017303;28;45487;-83
2023/03/21 08:09:07;;;;;;;;;6.33;4.33;;;;;14.34;100.00;101211.91;5027569;28;45503;-80
2023/03/21 08:11:32;;;;;;;;;6.00;6.00;;;;;14.35;100.00;101213.66;5032428;28;45549;-80
2023/03/21 08:13:59;;;;;;;;;7.67;6.00;;;;;14.37;100.00;101222.50;5027065;28;46773;-81
2023/03/21 08:16:24;;;;;;;;;5.00;5.00;;;;;14.44;100.00;101246.47;5012777;28;45533;-79
2023/03/21 08:18:50;;;;;;;;;3.33;3.00;;;;;14.46;100.00;101248.22;5033220;28;45485;-79
2023/03/21 08:21:15;;;;;;;;;8.00;6.00;;;;;14.50;100.00;101250.03;5029005;28;50622;-79
2023/03/21 08:23:40;;;;;;;;;7.67;5.33;;;;;14.55;100.00;101227.00;5027671;28;45764;-79
2023/03/21 08:26:06;;;;;;;;;12.67;6.67;;;;;14.62;100.00;101230.56;5012859;28;55517;-79
2023/03/21 08:28:32;;;;;;;;;7.67;5.33;;;;;14.68;100.00;101233.22;5027759;28;45450;-78
2023/03/21 08:30:57;;;;;;;;;5.00;5.00;;;;;14.74;100.00;101225.25;5032755;28;45553;-80
2023/03/21 08:33:23;;;;;;;;;5.00;5.00;;;;;14.84;100.00;101237.66;5029813;28;47347;-78
2023/03/21 08:35:48;;;;;;;;;9.67;6.67;;;;;14.96;100.00;101214.59;5027114;28;45516;-79
2023/03/21 08:38:14;;;;;;;;;8.33;6.00;;;;;15.06;100.00;101195.97;5028704;28;65270;-81
2023/03/21 08:40:40;;;;;;;;;6.67;6.67;;;;;15.15;100.00;101198.63;5032880;28;45423;-80
2023/03/21 08:43:05;;;;;;;;;7.67;5.67;;;;;15.24;100.00;101213.69;5035742;28;47013;-78
2023/03/21 08:45:31;;;;;;;;;7.00;6.00;;;;;15.33;100.00;101228.72;5033904;28;45480;-80
2023/03/21 08:47:57;;;;;;;;;6.00;5.00;;;;;15.43;100.00;101234.03;5036695;28;45415;-77
2023/03/21 08:50:25;;;;;;;;;6.67;5.67;;;;;15.50;100.00;101226.94;5035167;28;45600;-79
2023/03/21 08:52:51;;;;;;;;;11.33;5.67;;;;;15.57;100.00;101212.69;5036363;28;46495;-79
2023/03/21 08:55:17;;;;;;;;;6.33;5.33;;;;;15.62;100.00;101216.25;5034147;28;65632;-79
2023/03/21 08:57:43;;;;;;;;;8.00;6.33;;;;;15.64;100.00;101232.22;5036004;28;45581;-79
2023/03/21 09:00:12;;;;;;;;;6.00;6.00;;;;;15.69;100.00;101228.66;5036644;28;45231;-79
2023/03/21 09:02:39;;;;;;;;;7.00;5.67;;;;;15.74;100.00;101235.75;5015926;28;47239;-81
2023/03/21 09:05:04;;;;;;;;;5.00;4.67;;;;;15.72;100.00;101238.44;5035802;28;45562;-78
2023/03/21 09:07:32;;;;;;;;;3.00;3.00;;;;;15.65;100.00;101241.97;5017053;28;45586;-78
2023/03/21 09:09:59;;;;;;;;;5.67;2.67;;;;;15.56;100.00;101236.69;5027863;22;45435;-78
2023/03/21 09:12:24;;;;;;;;;4.33;4.00;;;;;15.53;100.00;101234.00;5034949;28;47877;-80
2023/03/21 09:14:52;;;;;;;;;3.00;3.00;;;;;15.50;100.00;101244.66;5034766;28;45558;-78
2023/03/21 09:17:17;;;;;;;;;5.33;5.33;;;;;15.42;100.00;101236.69;5034210;28;45513;-78
2023/03/21 09:19:43;;;;;;;;;3.00;3.00;;;;;15.33;100.00;101232.28;5016432;28;45954;-81
2023/03/21 09:22:13;;;;;;;;;5.67;3.67;;;;;15.25;100.00;101226.09;5034070;28;45671;-79
2023/03/21 09:24:41;;;;;;;;;5.33;3.67;;;;;15.20;100.00;101238.53;5035817;28;45503;-78
2023/03/21 09:27:06;;;;;;;;;5.33;4.33;;;;;15.14;100.00;101227.88;5034584;28;45578;-78
2023/03/21 09:29:32;;;;;;;;;5.33;4.00;;;;;15.09;100.00;101230.56;5019417;28;45458;-77
2023/03/21 09:31:58;;;;;;;;;4.00;3.67;;;;;14.97;100.00;101221.69;5033014;28;46102;-77
2023/03/21 09:34:25;;;;;;;;;3.00;3.00;;;;;14.96;100.00;101227.88;5034579;28;45491;-78
2023/03/21 09:36:53;;;;;;;;;5.67;3.33;;;;;14.95;100.00;101245.63;5034628;28;45411;-77
2023/03/21 09:39:19;;;;;;;;;6.00;3.00;;;;;14.99;100.00;101242.09;5041888;22;45448;-79
2023/03/21 09:41:59;;;;;;;;;3.00;3.00;;;;;15.07;100.00;101247.38;5030400;28;46118;-78
2023/03/21 09:44:52;;;;;;;;;3.33;2.67;;;;;15.18;100.00;101240.31;5049185;22;45322;-78
2023/03/21 09:47:27;;;;;;;;;3.33;3.00;;;;;15.36;100.00;101244.69;5042975;22;45434;-77
2023/03/21 09:49:58;;;;;;;;;5.00;4.00;;;;;15.61;100.00;101245.53;5019796;28;45523;-78
2023/03/21 09:52:46;;;;;;;;;5.00;4.00;;;;;15.84;100.00;101243.69;5016042;28;45530;-78
2023/03/21 09:55:25;;;;;;;;;4.67;2.33;;;;;15.94;100.00;101245.44;5033282;28;45531;-78
2023/03/21 09:58:28;;;;;;;;;3.00;3.00;;;;;15.97;100.00;101234.75;5022658;28;45370;-77
2023/03/21 10:01:21;;;;;;;;;4.33;3.00;;;;;16.10;100.00;101232.91;5012229;28;45604;-79
2023/03/21 10:03:47;;;;;;;;;6.33;3.00;;;;;16.19;100.00;101234.63;5018219;28;46678;-77
2023/03/21 10:06:14;;;;;;;;;6.00;4.00;;;;;16.27;100.00;101232.81;5016034;28;46041;-80
2023/03/21 10:08:43;;;;;;;;;7.00;3.33;;;;;16.36;100.00;101238.09;5014275;28;45575;-80
2023/03/21 10:11:13;;;;;;;;;5.00;3.33;;;;;16.40;100.00;101245.16;5015958;28;45367;-81
2023/03/21 10:13:43;;;;;;;;;4.00;4.00;;;;;16.45;100.00;101237.13;5017024;28;46955;-79
2023/03/21 10:16:15;;;;;;;;;4.67;3.33;;;;;16.52;100.00;101236.22;5014230;28;45638;-79
2023/03/21 10:18:42;;;;;;;;;3.00;3.00;;;;;16.51;100.00;101239.75;5019864;28;45306;-81
2023/03/21 10:21:15;;;;;;;;;4.33;4.33;;;;;16.57;100.00;101237.06;5016666;28;45659;-78
2023/03/21 10:23:40;;;;;;;;;3.00;3.00;;;;;16.59;100.00;101235.28;5034425;28;46728;-77
2023/03/21 10:26:07;;;;;;;;;3.00;3.00;;;;;16.59;100.00;101240.59;5018326;28;68810;-78
2023/03/21 10:28:36;;;;;;;;;4.67;3.00;;;;;16.59;100.00;101243.28;5032503;28;67349;-77
2023/03/21 10:31:04;;;;;;;;;6.67;4.00;;;;;16.58;100.00;101244.19;5017744;28;45658;-76
2023/03/21 10:33:36;;;;;;;;;2.00;2.00;;;;;16.59;100.00;101242.38;5031155;28;47204;-77
2023/03/21 10:36:07;;;;;;;;;5.00;3.00;;;;;16.63;100.00;101236.16;5014067;28;45479;-77
2023/03/21 10:38:33;;;;;;;;;4.00;3.00;;;;;16.71;100.00;101229.00;5017435;28;45562;-79
2023/03/21 10:40:59;;;;;;;;;2.67;2.67;;;;;16.83;100.00;101230.66;5020210;28;45587;-77
2023/03/21 10:43:24;;;;;;;;;6.00;3.00;;;;;16.95;100.00;101234.13;5034843;28;47095;-77
2023/03/21 10:45:50;;;;;;;;;2.00;2.00;;;;;17.06;100.00;101225.16;5041014;28;46839;-77
2023/03/21 10:48:15;;;;;;;;;4.00;4.00;;;;;17.18;100.00;101227.69;5033390;28;45486;-77
2023/03/21 10:50:41;;;;;;;;;3.00;3.00;;;;;17.24;100.00;101236.50;5033516;28;45528;-80
2023/03/21 10:53:21;;;;;;;;;6.00;3.00;;;;;17.24;100.00;101241.84;5021297;28;46921;-77
2023/03/21 10:55:55;;;;;;;;;2.00;2.00;;;;;17.24;100.00;101236.50;5033600;28;46012;-77
2023/03/21 10:58:26;;;;;;;;;3.00;3.00;;;;;17.28;100.00;101237.38;5020590;28;45561;-77
2023/03/21 11:01:04;;;;;;;;;6.00;4.33;;;;;17.30;100.00;101243.56;5020610;28;46581;-77
2023/03/21 11:03:36;;;;;;;;;3.00;3.00;;;;;17.34;100.00;101233.75;5033520;28;46804;-79
2023/03/21 11:06:07;;;;;;;;;4.00;4.00;;;;;17.36;100.00;101229.28;5019161;28;45542;-78
2023/03/21 11:08:43;;;;;;;;;7.00;4.00;;;;;17.40;100.00;101226.56;5005186;28;45458;-78
2023/03/21 11:11:11;;;;;;;;;7.33;3.67;;;;;17.39;100.00;101229.25;5032164;28;45272;-76
2023/03/21 11:13:44;;;;;;;;;4.00;3.00;;;;;17.40;100.00;101239.03;5015681;28;47404;-78
2023/03/21 11:16:31;;;;;;;;;3.00;3.00;;;;;17.48;100.00;101230.06;5016497;28;45450;-77
2023/03/21 11:19:01;;;;;;;;;3.67;3.67;;;;;17.64;100.00;101236.09;5033456;28;47323;-77
2023/03/21 11:21:27;;;;;;;;;3.67;3.67;;;;;17.75;100.00;101226.22;5032873;28;45472;-78
2023/03/21 11:23:54;;;;;;;;;7.00;6.00;;;;;17.82;100.00;101228.78;5014890;28;47531;-80